createdAt,value
2019-03-05T00:01:28.638Z,283.00
2019-03-05T00:04:03.515Z,294.43
2019-03-05T00:06:36.969Z,292.73
2019-03-05T00:09:11.545Z,298.40
2019-03-05T00:11:44.875Z,296.03
2019-03-05T00:14:18.953Z,331.70
2019-03-05T00:16:54.010Z,312.07
2019-03-05T00:19:29.096Z,306.33
2019-03-05T00:22:02.325Z,317.73
2019-03-05T00:25:00.647Z,305.60
2019-03-05T00:27:35.519Z,299.87
2019-03-05T00:30:43.057Z,310.03
2019-03-05T00:33:25.482Z,302.53
2019-03-05T00:36:25.595Z,305.07
2019-03-05T00:39:25.410Z,298.02
2019-03-05T00:42:34.111Z,294.17
2019-03-05T00:45:33.714Z,322.40
2019-03-05T00:48:28.996Z,310.37
2019-03-05T00:51:25.039Z,318.10
2019-03-05T00:54:07.569Z,319.15
2019-03-05T00:56:49.272Z,305.83
2019-03-05T00:59:47.598Z,314.40
2019-03-05T01:02:46.000Z,307.80
2019-03-05T01:05:22.270Z,314.77
2019-03-05T01:07:56.083Z,309.27
2019-03-05T01:10:29.482Z,301.37
2019-03-05T01:13:03.182Z,313.07
2019-03-05T01:15:36.531Z,308.57
2019-03-05T01:18:10.048Z,308.13
2019-03-05T01:20:43.319Z,292.77
2019-03-05T01:23:16.758Z,273.07
2019-03-05T01:25:50.346Z,290.17
2019-03-05T01:28:23.835Z,284.90
2019-03-05T01:30:57.045Z,270.42
2019-03-05T01:33:30.668Z,261.87
2019-03-05T01:36:03.972Z,280.17
2019-03-05T01:38:37.147Z,267.30
2019-03-05T01:41:10.486Z,258.47
2019-03-05T01:43:43.973Z,262.10
2019-03-05T01:46:17.383Z,257.70
2019-03-05T01:48:52.168Z,276.23
2019-03-05T01:51:25.462Z,274.13
2019-03-05T01:53:58.712Z,283.40
2019-03-05T01:56:32.092Z,260.43
2019-03-05T01:59:06.087Z,270.07
2019-03-05T02:01:39.409Z,272.70
2019-03-05T02:04:13.193Z,254.37
2019-03-05T02:06:46.954Z,259.83
2019-03-05T02:09:20.308Z,256.87
2019-03-05T02:11:53.776Z,258.00
2019-03-05T02:14:27.273Z,272.40
2019-03-05T02:17:01.889Z,245.55
2019-03-05T02:19:44.867Z,270.70
2019-03-05T02:22:23.900Z,257.00
2019-03-05T02:25:23.664Z,265.10
2019-03-05T02:28:28.273Z,295.20
2019-03-05T02:31:51.006Z,300.30
2019-03-05T02:34:29.906Z,248.00
2019-03-05T02:37:24.599Z,253.03
2019-03-05T02:40:12.546Z,242.43
2019-03-05T02:43:01.524Z,269.17
2019-03-05T02:45:56.625Z,256.23
2019-03-05T02:48:52.044Z,250.57
2019-03-05T02:51:35.168Z,254.17
2019-03-05T02:54:28.957Z,247.37
2019-03-05T02:57:09.925Z,244.80
2019-03-05T02:59:43.450Z,241.53
2019-03-05T03:02:17.301Z,250.78
2019-03-05T03:04:50.847Z,244.97
2019-03-05T03:07:24.357Z,238.87
2019-03-05T03:10:12.040Z,237.80
2019-03-05T03:12:45.576Z,242.57
2019-03-05T03:15:19.027Z,256.00
2019-03-05T03:17:53.008Z,236.40
2019-03-05T03:20:26.919Z,230.73
2019-03-05T03:23:01.293Z,230.30
2019-03-05T03:25:36.418Z,234.27
2019-03-05T03:28:10.006Z,246.73
2019-03-05T03:30:43.483Z,236.10
2019-03-05T03:33:16.905Z,252.40
2019-03-05T03:35:50.211Z,250.33
2019-03-05T03:38:23.515Z,243.77
2019-03-05T03:40:57.091Z,141.67
2019-03-05T03:43:30.354Z,120.33
2019-03-05T03:46:03.708Z,118.30
2019-03-05T03:48:38.418Z,101.77
2019-03-05T03:51:11.899Z,103.23
2019-03-05T03:53:45.169Z,113.43
2019-03-05T03:56:19.024Z,122.03
2019-03-05T03:58:52.308Z,121.65
2019-03-05T04:01:25.648Z,116.37
2019-03-05T04:03:59.453Z,113.40
2019-03-05T04:06:33.342Z,103.45
2019-03-05T04:09:11.120Z,144.57
2019-03-05T04:11:44.692Z,153.60
2019-03-05T04:14:17.940Z,173.30
2019-03-05T04:16:51.212Z,146.80
2019-03-05T04:19:24.867Z,135.50
2019-03-05T04:21:58.186Z,138.80
2019-03-05T04:24:31.431Z,146.30
2019-03-05T04:27:04.722Z,130.10
2019-03-05T04:29:39.431Z,134.17
2019-03-05T04:32:13.992Z,134.87
2019-03-05T04:34:47.776Z,137.27
2019-03-05T04:37:21.099Z,126.90
2019-03-05T04:39:54.373Z,123.63
2019-03-05T04:42:27.684Z,109.83
2019-03-05T04:45:00.972Z,125.47
2019-03-05T04:47:35.625Z,121.00
2019-03-05T04:50:09.998Z,118.90
2019-03-05T04:52:43.273Z,128.87
2019-03-05T04:55:16.550Z,108.20
2019-03-05T04:57:50.003Z,110.47
2019-03-05T05:00:23.421Z,103.90
2019-03-05T05:02:58.329Z,82.80
2019-03-05T05:05:31.365Z,117.77
2019-03-05T05:08:04.607Z,124.20
2019-03-05T05:10:41.676Z,106.93
2019-03-05T05:13:17.826Z,97.10
2019-03-05T05:15:53.122Z,121.60
2019-03-05T05:18:27.295Z,122.10
2019-03-05T05:21:01.428Z,106.20
2019-03-05T05:23:38.675Z,107.03
2019-03-05T05:26:12.950Z,115.17
2019-03-05T05:28:47.722Z,109.93
2019-03-05T05:31:21.328Z,123.00
2019-03-05T05:33:54.591Z,113.32
2019-03-05T05:36:28.002Z,113.27
2019-03-05T05:39:02.710Z,105.03
2019-03-05T05:41:36.004Z,103.60
2019-03-05T05:44:09.293Z,105.73
2019-03-05T05:46:42.523Z,100.07
2019-03-05T05:49:15.825Z,104.63
2019-03-05T05:51:50.481Z,101.03
2019-03-05T05:54:23.741Z,114.00
2019-03-05T05:56:59.320Z,107.90
2019-03-05T05:59:32.668Z,103.87
2019-03-05T06:02:06.181Z,103.97
2019-03-05T06:04:41.881Z,112.27
2019-03-05T06:07:14.909Z,115.73
2019-03-05T06:09:48.214Z,102.73
2019-03-05T06:12:21.430Z,112.67
2019-03-05T06:14:56.588Z,111.00
2019-03-05T06:17:29.949Z,105.53
2019-03-05T06:20:03.373Z,106.80
2019-03-05T06:22:36.657Z,91.70
2019-03-05T06:25:12.808Z,71.10
2019-03-05T06:27:46.233Z,89.62
2019-03-05T06:30:21.368Z,114.17
2019-03-05T06:32:54.684Z,106.50
2019-03-05T06:35:28.192Z,104.33
2019-03-05T06:38:01.514Z,106.07
2019-03-05T06:40:35.342Z,122.80
2019-03-05T06:43:08.933Z,118.20
2019-03-05T06:45:44.703Z,115.25
2019-03-05T06:48:18.071Z,112.77
2019-03-05T06:50:51.438Z,117.67
2019-03-05T06:53:24.771Z,126.23
2019-03-05T06:55:58.066Z,114.03
2019-03-05T06:58:31.424Z,114.80
2019-03-05T07:01:04.827Z,111.33
2019-03-05T07:03:38.228Z,112.23
2019-03-05T07:06:42.512Z,123.60
2019-03-05T07:09:51.357Z,116.13
2019-03-05T07:12:33.478Z,122.37
2019-03-05T07:15:28.127Z,114.47
2019-03-05T07:18:24.993Z,131.17
2019-03-05T07:21:22.884Z,101.22
2019-03-05T07:24:22.478Z,116.73
2019-03-05T07:26:56.070Z,111.17
2019-03-05T07:29:29.313Z,112.87
2019-03-05T07:32:02.832Z,103.50
2019-03-05T07:34:36.445Z,115.93
2019-03-05T07:37:12.399Z,117.63
2019-03-05T07:39:48.386Z,109.27
2019-03-05T07:42:21.801Z,128.83
2019-03-05T07:44:56.357Z,131.73
2019-03-05T07:47:29.917Z,129.00
2019-03-05T07:50:03.461Z,125.27
2019-03-05T07:52:36.861Z,136.17
2019-03-05T07:55:16.507Z,126.57
2019-03-05T07:57:49.947Z,124.50
2019-03-05T08:00:24.902Z,134.47
2019-03-05T08:02:58.284Z,144.33
2019-03-05T08:05:31.829Z,147.00
2019-03-05T08:08:56.614Z,158.77
2019-03-05T08:11:31.966Z,173.40
2019-03-05T08:14:30.147Z,184.93
2019-03-05T08:17:03.553Z,188.47
2019-03-05T08:19:38.291Z,211.47
2019-03-05T08:22:12.744Z,210.43
2019-03-05T08:24:47.712Z,211.07
2019-03-05T08:27:21.259Z,213.53
2019-03-05T08:29:54.573Z,207.40
2019-03-05T08:32:28.529Z,210.30
2019-03-05T08:35:01.966Z,193.80
2019-03-05T08:37:36.386Z,211.90
2019-03-05T08:40:18.246Z,229.90
2019-03-05T08:42:51.467Z,224.70
2019-03-05T08:45:29.427Z,222.60
2019-03-05T08:48:00.477Z,204.53
2019-03-05T08:50:35.410Z,206.73
2019-03-05T08:53:08.947Z,190.20
2019-03-05T08:55:43.348Z,191.23
2019-03-05T08:58:16.892Z,205.03
2019-03-05T09:00:50.271Z,195.65
2019-03-05T09:03:24.426Z,196.37
2019-03-05T09:05:58.165Z,215.77
2019-03-05T09:08:32.187Z,196.13
2019-03-05T09:11:05.674Z,219.27
2019-03-05T09:13:39.405Z,232.03
2019-03-05T09:16:13.407Z,241.70
2019-03-05T09:18:46.914Z,239.63
2019-03-05T09:21:22.070Z,273.53
2019-03-05T09:23:55.385Z,269.93
2019-03-05T09:26:30.170Z,278.10
2019-03-05T09:29:04.306Z,305.90
2019-03-05T09:31:37.743Z,316.47
2019-03-05T09:34:11.957Z,329.87
2019-03-05T09:36:50.995Z,318.87
2019-03-05T09:39:20.433Z,328.63
2019-03-05T09:41:54.170Z,339.37
2019-03-05T09:44:29.029Z,357.70
2019-03-05T09:47:02.528Z,350.17
2019-03-05T09:49:37.407Z,352.40
2019-03-05T09:52:10.996Z,310.07
2019-03-05T09:54:44.495Z,299.63
2019-03-05T09:57:20.410Z,318.33
2019-03-05T09:59:54.125Z,345.07
2019-03-05T10:02:27.840Z,325.73
2019-03-05T10:05:01.773Z,320.43
2019-03-05T10:07:35.819Z,319.43
2019-03-05T10:10:15.108Z,298.47
2019-03-05T10:12:49.292Z,271.68
2019-03-05T10:15:26.266Z,261.20
2019-03-05T10:18:12.346Z,263.77
2019-03-05T10:20:42.271Z,266.57
2019-03-05T10:23:16.277Z,247.30
2019-03-05T10:25:51.062Z,244.90
2019-03-05T10:28:24.526Z,236.30
2019-03-05T10:30:58.960Z,252.07
2019-03-05T10:33:35.604Z,247.80
2019-03-05T10:36:10.244Z,243.53
2019-03-05T10:38:44.391Z,247.90
2019-03-05T10:41:20.316Z,247.63
2019-03-05T10:43:54.862Z,243.83
2019-03-05T10:46:29.268Z,262.00
2019-03-05T10:49:03.322Z,248.83
2019-03-05T10:51:38.789Z,265.43
2019-03-05T10:54:13.850Z,263.37
2019-03-05T10:56:48.144Z,257.40
2019-03-05T10:59:22.072Z,245.60
2019-03-05T11:01:58.175Z,263.62
2019-03-05T11:04:33.883Z,274.00
2019-03-05T11:07:09.629Z,257.83
2019-03-05T11:09:45.059Z,273.90
2019-03-05T11:12:19.931Z,242.00
2019-03-05T11:14:57.496Z,243.20
2019-03-05T11:17:33.231Z,253.10
2019-03-05T11:20:11.475Z,247.65
2019-03-05T11:22:48.694Z,258.30
2019-03-05T11:25:27.680Z,238.97
2019-03-05T11:28:03.997Z,257.67
2019-03-05T11:30:40.599Z,213.15
2019-03-05T11:33:16.669Z,250.23
2019-03-05T11:35:52.480Z,254.33
2019-03-05T11:38:29.077Z,251.83
2019-03-05T11:41:07.724Z,253.93
2019-03-05T11:43:42.165Z,247.17
2019-03-05T11:46:18.716Z,249.87
2019-03-05T11:48:53.329Z,247.77
2019-03-05T11:51:28.793Z,248.27
2019-03-05T11:54:09.351Z,239.07
2019-03-05T11:56:45.117Z,242.87
2019-03-05T11:59:20.997Z,234.37
2019-03-05T12:01:56.074Z,209.20
2019-03-05T12:04:33.692Z,184.00
2019-03-05T12:07:08.696Z,197.93
2019-03-05T12:09:43.688Z,190.80
2019-03-05T12:12:21.050Z,194.07
2019-03-05T12:14:56.170Z,184.47
2019-03-05T12:17:32.149Z,113.40
2019-03-05T12:20:09.991Z,106.53
2019-03-05T12:22:45.154Z,82.73
2019-03-05T12:25:24.731Z,89.77
2019-03-05T12:28:10.412Z,81.13
2019-03-05T12:30:41.485Z,98.37
2019-03-05T12:33:18.413Z,79.03
2019-03-05T12:35:56.736Z,82.17
2019-03-05T12:38:31.779Z,82.37
2019-03-05T12:41:07.079Z,73.10
2019-03-05T12:43:42.426Z,67.60
2019-03-05T12:46:23.040Z,70.08
2019-03-05T12:49:00.662Z,63.93
2019-03-05T12:51:39.162Z,61.23
2019-03-05T12:54:16.631Z,76.80
2019-03-05T12:56:51.835Z,60.43
2019-03-05T12:59:29.564Z,72.47
2019-03-05T13:02:06.694Z,81.37
2019-03-05T13:04:44.192Z,51.90
2019-03-05T13:07:19.292Z,60.10
2019-03-05T13:09:56.934Z,62.33
2019-03-05T13:12:35.849Z,55.63
2019-03-05T13:15:09.696Z,59.37
2019-03-05T13:17:47.152Z,57.17
2019-03-05T13:20:22.599Z,47.53
2019-03-05T13:23:05.051Z,57.13
2019-03-05T13:25:40.668Z,47.30
2019-03-05T13:28:15.324Z,47.60
2019-03-05T13:30:50.871Z,57.60
2019-03-05T13:33:29.383Z,59.87
2019-03-05T13:36:05.130Z,53.37
2019-03-05T13:38:45.235Z,69.97
2019-03-05T13:41:19.620Z,50.27
2019-03-05T13:43:56.630Z,52.50
2019-03-05T13:46:36.704Z,58.27
2019-03-05T13:49:22.763Z,68.30
2019-03-05T13:52:41.723Z,53.83
2019-03-05T13:55:28.043Z,52.30
2019-03-05T13:58:17.107Z,59.47
2019-03-05T14:00:52.638Z,47.97
2019-03-05T14:03:33.077Z,47.03
2019-03-05T14:06:36.511Z,46.60
2019-03-05T14:09:24.266Z,51.83
2019-03-05T14:11:59.271Z,45.27
2019-03-05T14:14:34.350Z,48.35
2019-03-05T14:17:09.113Z,54.47
2019-03-05T14:19:45.517Z,53.37
2019-03-05T14:22:21.781Z,44.70
2019-03-05T14:25:02.018Z,43.03
2019-03-05T14:27:31.649Z,45.90
2019-03-05T14:30:07.269Z,55.38
2019-03-05T14:32:41.471Z,57.80
2019-03-05T14:35:16.772Z,47.23
2019-03-05T14:37:51.170Z,49.87
2019-03-05T14:40:30.575Z,54.93
2019-03-05T14:43:06.187Z,62.62
2019-03-05T14:45:40.583Z,45.87
2019-03-05T14:48:14.644Z,43.47
2019-03-05T14:50:48.665Z,45.77
2019-03-05T14:53:22.618Z,64.33
2019-03-05T14:55:56.273Z,58.07
2019-03-05T14:58:30.355Z,47.63
2019-03-05T15:01:04.974Z,44.97
2019-03-05T15:03:39.615Z,46.70
2019-03-05T15:06:14.017Z,61.77
2019-03-05T15:08:47.994Z,47.23
2019-03-05T15:11:22.820Z,48.47
2019-03-05T15:13:57.085Z,42.95
2019-03-05T15:16:31.534Z,53.70
2019-03-05T15:19:05.733Z,42.37
2019-03-05T15:21:39.949Z,42.00
2019-03-05T15:24:15.624Z,54.37
2019-03-05T15:26:50.063Z,42.40
2019-03-05T15:29:23.854Z,49.37
2019-03-05T15:31:58.009Z,44.93
2019-03-05T15:34:32.056Z,64.70
2019-03-05T15:37:05.573Z,48.97
2019-03-05T15:39:38.894Z,44.23
2019-03-05T15:42:14.334Z,36.90
2019-03-05T15:44:49.019Z,42.00
2019-03-05T15:47:22.556Z,40.83
2019-03-05T15:49:56.012Z,38.67
2019-03-05T15:52:29.643Z,33.48
2019-03-05T15:55:03.025Z,34.90
2019-03-05T15:57:36.424Z,36.23
2019-03-05T16:00:27.037Z,29.60
2019-03-05T16:03:00.617Z,49.37
2019-03-05T16:05:33.935Z,31.50
2019-03-05T16:08:08.951Z,39.90
2019-03-05T16:10:42.512Z,40.60
2019-03-05T16:13:19.336Z,34.57
2019-03-05T16:19:19.187Z,39.20
2019-03-05T16:21:53.891Z,46.00
2019-03-05T16:24:28.908Z,41.50
2019-03-05T16:27:02.685Z,36.57
2019-03-05T16:29:36.004Z,40.13
2019-03-05T16:32:09.467Z,35.83
2019-03-05T16:34:45.900Z,39.50
2019-03-05T16:37:17.404Z,41.43
2019-03-05T16:39:50.584Z,32.67
2019-03-05T16:42:24.005Z,30.27
2019-03-05T16:44:57.326Z,37.97
2019-03-05T16:47:30.572Z,41.93
2019-03-05T16:50:04.009Z,25.75
2019-03-05T16:52:37.264Z,30.90
2019-03-05T16:55:12.619Z,34.35
2019-03-05T16:57:46.289Z,35.28
2019-03-05T17:00:20.060Z,32.47
2019-03-05T17:02:53.432Z,53.08
2019-03-05T17:05:27.272Z,34.47
2019-03-05T17:08:01.737Z,35.45
2019-03-05T17:10:36.334Z,30.62
2019-03-05T17:13:09.789Z,29.33
2019-03-05T17:15:42.988Z,35.37
2019-03-05T17:18:16.440Z,36.80
2019-03-05T17:20:49.703Z,36.63
2019-03-05T17:23:23.140Z,32.13
2019-03-05T17:25:56.435Z,33.50
2019-03-05T17:28:29.711Z,28.53
2019-03-05T17:31:03.153Z,27.13
2019-03-05T17:33:36.344Z,29.10
2019-03-05T17:36:10.523Z,26.30
2019-03-05T17:38:43.839Z,37.83
2019-03-05T17:41:17.267Z,31.33
2019-03-05T17:43:50.512Z,27.73
2019-03-05T17:46:23.909Z,24.80
2019-03-05T17:48:57.213Z,26.97
2019-03-05T17:51:31.040Z,25.37
2019-03-05T17:54:05.129Z,25.57
2019-03-05T17:56:38.459Z,23.80
2019-03-05T17:59:12.017Z,29.53
2019-03-05T18:01:45.314Z,28.53
2019-03-05T18:04:18.895Z,24.90
2019-03-05T18:06:52.234Z,25.67
2019-03-05T18:09:25.862Z,24.40
2019-03-05T18:11:59.842Z,22.53
2019-03-05T18:14:33.087Z,29.80
2019-03-05T18:17:07.333Z,22.82
2019-03-05T18:19:40.595Z,28.83
2019-03-05T18:22:13.822Z,23.73
2019-03-05T18:24:47.098Z,23.33
2019-03-05T18:27:20.409Z,26.57
2019-03-05T18:29:53.626Z,20.60
2019-03-05T18:32:26.868Z,20.67
2019-03-05T18:35:00.322Z,20.30
2019-03-05T18:37:33.811Z,19.65
2019-03-05T18:40:09.078Z,22.33
2019-03-05T18:42:42.344Z,21.03
2019-03-05T18:45:24.726Z,26.47
2019-03-05T18:47:58.252Z,21.00
2019-03-05T18:50:31.931Z,20.47
2019-03-05T18:53:06.670Z,20.57
2019-03-05T18:55:40.582Z,18.40
2019-03-05T18:58:13.988Z,18.63
2019-03-05T19:00:47.423Z,22.27
2019-03-05T19:03:23.955Z,27.37
2019-03-05T19:05:57.329Z,21.23
2019-03-05T19:08:30.641Z,19.73
2019-03-05T19:11:03.885Z,18.33
2019-03-05T19:13:37.675Z,18.13
2019-03-05T19:16:11.059Z,17.20
2019-03-05T19:18:45.699Z,20.87
2019-03-05T19:21:19.174Z,16.80
2019-03-05T19:23:52.491Z,18.80
2019-03-05T19:26:26.060Z,17.53
2019-03-05T19:28:59.310Z,20.17
2019-03-05T19:31:32.788Z,19.10
2019-03-05T19:34:06.228Z,16.17
2019-03-05T19:36:39.658Z,17.83
2019-03-05T19:39:14.875Z,16.35
2019-03-05T19:41:55.890Z,18.27
2019-03-05T19:44:22.865Z,18.65
2019-03-05T19:46:56.040Z,19.07
2019-03-05T19:49:29.531Z,18.03
2019-03-05T19:52:02.905Z,18.87
2019-03-05T19:54:36.135Z,23.60
2019-03-05T19:57:09.393Z,23.17
2019-03-05T19:59:42.634Z,20.77
2019-03-05T20:02:15.957Z,15.40
2019-03-05T20:04:49.334Z,17.50
2019-03-05T20:07:22.700Z,23.43
2019-03-05T20:09:56.215Z,17.03
2019-03-05T20:12:31.346Z,20.00
2019-03-05T20:15:04.701Z,20.10
2019-03-05T20:17:38.429Z,23.67
2019-03-05T20:20:13.324Z,16.67
2019-03-05T20:22:47.519Z,13.95
2019-03-05T20:25:25.116Z,18.53
2019-03-05T20:27:58.660Z,17.10
2019-03-05T20:30:32.108Z,15.37
2019-03-05T20:33:05.351Z,14.93
2019-03-05T20:35:38.548Z,15.60
2019-03-05T20:38:12.156Z,17.27
2019-03-05T20:40:45.449Z,17.87
2019-03-05T20:43:19.131Z,17.12
2019-03-05T20:46:07.342Z,15.57
2019-03-05T20:48:40.650Z,16.70
2019-03-05T20:51:13.970Z,14.83
2019-03-05T20:53:47.294Z,17.63
2019-03-05T20:56:20.543Z,16.10
2019-03-05T20:58:54.597Z,14.30
2019-03-05T21:04:10.211Z,16.57
2019-03-05T21:06:43.536Z,11.23
2019-03-05T21:09:25.366Z,13.97
2019-03-05T21:11:58.689Z,16.10
2019-03-05T21:14:34.828Z,12.60
2019-03-05T21:17:06.546Z,16.40
2019-03-05T21:19:39.887Z,16.40
2019-03-05T21:22:13.446Z,13.27
2019-03-05T21:24:47.321Z,18.77
2019-03-05T21:27:20.941Z,15.87
2019-03-05T21:29:55.763Z,14.53
2019-03-05T21:32:29.011Z,13.93
2019-03-05T21:35:02.392Z,12.43
2019-03-05T21:37:35.713Z,15.00
2019-03-05T21:40:31.607Z,14.50
2019-03-05T21:43:05.192Z,11.30
2019-03-05T21:45:50.057Z,11.73
2019-03-05T21:48:25.135Z,12.50
2019-03-05T21:51:00.314Z,15.30
2019-03-05T21:53:33.879Z,14.63
2019-03-05T21:56:07.282Z,12.87
2019-03-05T21:58:40.624Z,16.20
2019-03-05T22:01:14.273Z,16.27
2019-03-05T22:03:47.875Z,11.83
2019-03-05T22:06:21.494Z,14.93
2019-03-05T22:08:55.785Z,11.38
2019-03-05T22:11:29.058Z,12.10
2019-03-05T22:14:02.709Z,10.77
2019-03-05T22:16:35.957Z,17.50
2019-03-05T22:19:10.347Z,14.53
2019-03-05T22:21:44.270Z,9.33
2019-03-05T22:24:17.837Z,13.57
2019-03-05T22:26:51.141Z,17.30
2019-03-05T22:29:24.758Z,16.80
2019-03-05T22:31:59.740Z,11.37
2019-03-05T22:34:33.046Z,16.03
2019-03-05T22:37:06.599Z,14.57
2019-03-05T22:39:40.018Z,16.47
2019-03-05T22:42:13.660Z,17.17
2019-03-05T22:44:47.031Z,16.27
2019-03-05T22:47:23.540Z,15.03
2019-03-05T22:49:56.821Z,15.47
2019-03-05T22:52:30.162Z,12.90
2019-03-05T22:55:03.353Z,18.53
2019-03-05T22:57:39.002Z,16.97
2019-03-05T23:00:27.220Z,14.10
2019-03-05T23:03:00.717Z,12.73
2019-03-05T23:05:36.466Z,15.00
2019-03-05T23:08:10.411Z,16.60
2019-03-05T23:10:44.161Z,17.83
2019-03-05T23:13:19.222Z,21.23
2019-03-05T23:15:54.950Z,18.37
2019-03-05T23:18:31.228Z,13.97
2019-03-05T23:21:04.625Z,17.70
2019-03-05T23:23:39.050Z,15.53
2019-03-05T23:26:13.246Z,15.00
2019-03-05T23:28:46.495Z,19.07
2019-03-05T23:31:19.883Z,15.83
2019-03-05T23:33:53.507Z,20.40
2019-03-05T23:36:27.061Z,19.00
2019-03-05T23:39:00.435Z,19.70
2019-03-05T23:41:33.971Z,25.80
2019-03-05T23:44:10.255Z,24.73
2019-03-05T23:46:45.282Z,28.77
2019-03-05T23:49:19.568Z,23.53
2019-03-05T23:51:52.946Z,18.93
2019-03-05T23:54:33.444Z,27.87
2019-03-05T23:57:07.138Z,27.47
2019-03-05T23:59:40.509Z,30.53
